sensor_id;sensor_type;location;lat;lon;timestamp;P1;durP1;ratioP1;P2;durP2;ratioP2
49626;SDS011;35527;54.616;39.786;2023-03-12T00:00:19;11.27;;;3.85;;
49626;SDS011;35527;54.616;39.786;2023-03-12T00:03:22;12.05;;;6.97;;
49626;SDS011;35527;54.616;39.786;2023-03-12T00:06:25;11.88;;;6.57;;
49626;SDS011;35527;54.616;39.786;2023-03-12T00:09:28;12.52;;;7.05;;
49626;SDS011;35527;54.616;39.786;2023-03-12T00:12:33;12.15;;;6.80;;
49626;SDS011;35527;54.616;39.786;2023-03-12T00:15:37;13.88;;;5.10;;
49626;SDS011;35527;54.616;39.786;2023-03-12T00:18:40;9.50;;;3.47;;
49626;SDS011;35527;54.616;39.786;2023-03-12T00:21:45;10.53;;;7.07;;
49626;SDS011;35527;54.616;39.786;2023-03-12T00:24:53;8.63;;;3.38;;
49626;SDS011;35527;54.616;39.786;2023-03-12T00:28:26;13.13;;;7.72;;
49626;SDS011;35527;54.616;39.786;2023-03-12T00:31:30;14.48;;;8.43;;
49626;SDS011;35527;54.616;39.786;2023-03-12T00:34:34;11.02;;;5.22;;
49626;SDS011;35527;54.616;39.786;2023-03-12T00:37:43;13.47;;;9.47;;
49626;SDS011;35527;54.616;39.786;2023-03-12T00:40:46;10.80;;;5.72;;
49626;SDS011;35527;54.616;39.786;2023-03-12T00:44:15;10.35;;;5.65;;
49626;SDS011;35527;54.616;39.786;2023-03-12T00:47:17;13.20;;;5.40;;
49626;SDS011;35527;54.616;39.786;2023-03-12T00:50:25;12.20;;;5.95;;
49626;SDS011;35527;54.616;39.786;2023-03-12T00:53:28;22.55;;;16.17;;
49626;SDS011;35527;54.616;39.786;2023-03-12T00:56:31;17.13;;;8.02;;
49626;SDS011;35527;54.616;39.786;2023-03-12T00:59:41;24.52;;;16.45;;
49626;SDS011;35527;54.616;39.786;2023-03-12T01:02:45;14.35;;;7.70;;
49626;SDS011;35527;54.616;39.786;2023-03-12T01:05:47;27.75;;;15.32;;
49626;SDS011;35527;54.616;39.786;2023-03-12T01:08:55;29.75;;;21.83;;
49626;SDS011;35527;54.616;39.786;2023-03-12T01:12:01;24.45;;;13.48;;
49626;SDS011;35527;54.616;39.786;2023-03-12T01:15:04;21.40;;;10.43;;
49626;SDS011;35527;54.616;39.786;2023-03-12T01:18:10;24.75;;;11.65;;
49626;SDS011;35527;54.616;39.786;2023-03-12T01:21:16;20.92;;;11.43;;
49626;SDS011;35527;54.616;39.786;2023-03-12T01:24:19;21.77;;;10.95;;
49626;SDS011;35527;54.616;39.786;2023-03-12T01:27:23;35.67;;;26.23;;
49626;SDS011;35527;54.616;39.786;2023-03-12T01:30:51;28.88;;;12.88;;
49626;SDS011;35527;54.616;39.786;2023-03-12T01:33:56;35.63;;;25.98;;
49626;SDS011;35527;54.616;39.786;2023-03-12T01:36:59;25.23;;;13.75;;
49626;SDS011;35527;54.616;39.786;2023-03-12T01:40:06;25.60;;;14.68;;
49626;SDS011;35527;54.616;39.786;2023-03-12T01:46:34;21.58;;;12.95;;
49626;SDS011;35527;54.616;39.786;2023-03-12T01:49:45;22.08;;;12.57;;
49626;SDS011;35527;54.616;39.786;2023-03-12T01:52:50;28.08;;;17.38;;
49626;SDS011;35527;54.616;39.786;2023-03-12T01:55:53;30.58;;;22.77;;
49626;SDS011;35527;54.616;39.786;2023-03-12T01:58:59;24.27;;;12.57;;
49626;SDS011;35527;54.616;39.786;2023-03-12T02:02:08;24.40;;;14.40;;
49626;SDS011;35527;54.616;39.786;2023-03-12T02:08:22;20.27;;;12.05;;
49626;SDS011;35527;54.616;39.786;2023-03-12T02:11:26;26.10;;;14.82;;
49626;SDS011;35527;54.616;39.786;2023-03-12T02:14:31;29.42;;;21.45;;
49626;SDS011;35527;54.616;39.786;2023-03-12T02:17:40;30.55;;;20.52;;
49626;SDS011;35527;54.616;39.786;2023-03-12T02:26:56;22.80;;;13.32;;
49626;SDS011;35527;54.616;39.786;2023-03-12T02:29:59;22.27;;;11.65;;
49626;SDS011;35527;54.616;39.786;2023-03-12T02:33:04;32.28;;;20.42;;
49626;SDS011;35527;54.616;39.786;2023-03-12T02:39:18;14.85;;;7.78;;
49626;SDS011;35527;54.616;39.786;2023-03-12T02:42:25;31.98;;;22.65;;
49626;SDS011;35527;54.616;39.786;2023-03-12T02:45:28;21.30;;;11.30;;
49626;SDS011;35527;54.616;39.786;2023-03-12T02:48:36;31.40;;;21.70;;
49626;SDS011;35527;54.616;39.786;2023-03-12T02:54:45;32.60;;;16.23;;
49626;SDS011;35527;54.616;39.786;2023-03-12T02:57:51;35.97;;;23.83;;
49626;SDS011;35527;54.616;39.786;2023-03-12T03:04:04;24.42;;;12.55;;
49626;SDS011;35527;54.616;39.786;2023-03-12T03:07:08;39.33;;;27.08;;
49626;SDS011;35527;54.616;39.786;2023-03-12T03:10:13;40.70;;;27.17;;
49626;SDS011;35527;54.616;39.786;2023-03-12T03:13:23;39.00;;;26.48;;
49626;SDS011;35527;54.616;39.786;2023-03-12T03:16:28;41.78;;;28.83;;
49626;SDS011;35527;54.616;39.786;2023-03-12T03:19:32;31.42;;;14.60;;
49626;SDS011;35527;54.616;39.786;2023-03-12T03:22:35;28.20;;;12.82;;
49626;SDS011;35527;54.616;39.786;2023-03-12T03:25:40;26.92;;;12.30;;
49626;SDS011;35527;54.616;39.786;2023-03-12T03:28:45;43.40;;;28.15;;
49626;SDS011;35527;54.616;39.786;2023-03-12T03:31:50;29.77;;;14.85;;
49626;SDS011;35527;54.616;39.786;2023-03-12T03:34:53;49.70;;;30.52;;
49626;SDS011;35527;54.616;39.786;2023-03-12T03:37:57;46.65;;;31.05;;
49626;SDS011;35527;54.616;39.786;2023-03-12T03:41:02;55.42;;;33.58;;
49626;SDS011;35527;54.616;39.786;2023-03-12T03:44:09;58.15;;;33.70;;
49626;SDS011;35527;54.616;39.786;2023-03-12T03:47:12;63.17;;;35.15;;
49626;SDS011;35527;54.616;39.786;2023-03-12T03:50:16;45.63;;;18.67;;
49626;SDS011;35527;54.616;39.786;2023-03-12T03:53:21;35.25;;;16.30;;
49626;SDS011;35527;54.616;39.786;2023-03-12T03:56:25;30.03;;;12.30;;
49626;SDS011;35527;54.616;39.786;2023-03-12T03:59:28;48.13;;;29.15;;
49626;SDS011;35527;54.616;39.786;2023-03-12T04:02:32;34.47;;;15.63;;
49626;SDS011;35527;54.616;39.786;2023-03-12T04:06:01;41.35;;;26.83;;
49626;SDS011;35527;54.616;39.786;2023-03-12T04:12:11;41.20;;;27.58;;
49626;SDS011;35527;54.616;39.786;2023-03-12T04:15:16;32.38;;;13.95;;
49626;SDS011;35527;54.616;39.786;2023-03-12T04:18:23;30.42;;;14.25;;
49626;SDS011;35527;54.616;39.786;2023-03-12T04:21:27;42.05;;;27.88;;
49626;SDS011;35527;54.616;39.786;2023-03-12T04:24:31;28.55;;;14.00;;
49626;SDS011;35527;54.616;39.786;2023-03-12T04:27:38;39.10;;;24.95;;
49626;SDS011;35527;54.616;39.786;2023-03-12T04:30:43;25.95;;;12.25;;
49626;SDS011;35527;54.616;39.786;2023-03-12T04:33:46;37.28;;;24.38;;
49626;SDS011;35527;54.616;39.786;2023-03-12T04:36:51;31.33;;;15.00;;
49626;SDS011;35527;54.616;39.786;2023-03-12T04:39:56;30.60;;;14.63;;
49626;SDS011;35527;54.616;39.786;2023-03-12T04:43:01;31.88;;;13.10;;
49626;SDS011;35527;54.616;39.786;2023-03-12T04:46:07;39.78;;;25.90;;
49626;SDS011;35527;54.616;39.786;2023-03-12T04:49:14;42.25;;;26.30;;
49626;SDS011;35527;54.616;39.786;2023-03-12T04:52:18;33.95;;;15.15;;
49626;SDS011;35527;54.616;39.786;2023-03-12T04:55:22;44.67;;;27.23;;
49626;SDS011;35527;54.616;39.786;2023-03-12T04:58:26;33.50;;;15.40;;
49626;SDS011;35527;54.616;39.786;2023-03-12T05:01:30;42.53;;;28.65;;
49626;SDS011;35527;54.616;39.786;2023-03-12T05:04:41;47.40;;;30.73;;
49626;SDS011;35527;54.616;39.786;2023-03-12T05:07:44;50.60;;;30.10;;
49626;SDS011;35527;54.616;39.786;2023-03-12T05:10:50;29.95;;;13.30;;
49626;SDS011;35527;54.616;39.786;2023-03-12T05:13:54;49.63;;;32.00;;
49626;SDS011;35527;54.616;39.786;2023-03-12T05:17:02;28.45;;;12.48;;
49626;SDS011;35527;54.616;39.786;2023-03-12T05:20:08;32.10;;;15.13;;
49626;SDS011;35527;54.616;39.786;2023-03-12T05:23:14;27.85;;;13.40;;
49626;SDS011;35527;54.616;39.786;2023-03-12T05:26:18;43.42;;;31.10;;
49626;SDS011;35527;54.616;39.786;2023-03-12T05:29:32;42.03;;;28.73;;
49626;SDS011;35527;54.616;39.786;2023-03-12T05:32:38;41.33;;;27.35;;
49626;SDS011;35527;54.616;39.786;2023-03-12T05:35:47;28.17;;;13.95;;
49626;SDS011;35527;54.616;39.786;2023-03-12T05:38:51;28.00;;;15.18;;
49626;SDS011;35527;54.616;39.786;2023-03-12T05:42:02;36.30;;;25.67;;
49626;SDS011;35527;54.616;39.786;2023-03-12T05:45:05;30.08;;;14.85;;
49626;SDS011;35527;54.616;39.786;2023-03-12T05:48:11;30.30;;;13.60;;
49626;SDS011;35527;54.616;39.786;2023-03-12T05:51:14;18.60;;;8.85;;
49626;SDS011;35527;54.616;39.786;2023-03-12T05:54:17;33.47;;;24.05;;
49626;SDS011;35527;54.616;39.786;2023-03-12T05:57:24;29.98;;;12.35;;
49626;SDS011;35527;54.616;39.786;2023-03-12T06:00:28;33.67;;;23.33;;
49626;SDS011;35527;54.616;39.786;2023-03-12T06:03:33;26.23;;;13.88;;
49626;SDS011;35527;54.616;39.786;2023-03-12T06:06:39;29.88;;;20.20;;
49626;SDS011;35527;54.616;39.786;2023-03-12T06:09:49;22.63;;;12.10;;
49626;SDS011;35527;54.616;39.786;2023-03-12T06:12:58;28.10;;;21.23;;
49626;SDS011;35527;54.616;39.786;2023-03-12T06:19:21;28.45;;;20.30;;
49626;SDS011;35527;54.616;39.786;2023-03-12T06:22:24;22.20;;;13.30;;
49626;SDS011;35527;54.616;39.786;2023-03-12T06:25:29;25.90;;;19.40;;
49626;SDS011;35527;54.616;39.786;2023-03-12T06:28:32;22.48;;;13.35;;
49626;SDS011;35527;54.616;39.786;2023-03-12T06:31:37;25.73;;;19.35;;
49626;SDS011;35527;54.616;39.786;2023-03-12T06:34:45;20.08;;;11.95;;
49626;SDS011;35527;54.616;39.786;2023-03-12T06:37:48;22.13;;;17.60;;
49626;SDS011;35527;54.616;39.786;2023-03-12T06:44:08;26.42;;;19.08;;
49626;SDS011;35527;54.616;39.786;2023-03-12T06:47:11;19.42;;;9.43;;
49626;SDS011;35527;54.616;39.786;2023-03-12T06:50:19;23.40;;;16.77;;
49626;SDS011;35527;54.616;39.786;2023-03-12T06:53:24;24.05;;;16.88;;
49626;SDS011;35527;54.616;39.786;2023-03-12T06:56:58;20.10;;;10.48;;
49626;SDS011;35527;54.616;39.786;2023-03-12T07:00:01;27.30;;;18.90;;
49626;SDS011;35527;54.616;39.786;2023-03-12T07:03:04;21.45;;;11.05;;
49626;SDS011;35527;54.616;39.786;2023-03-12T07:06:15;21.60;;;10.82;;
49626;SDS011;35527;54.616;39.786;2023-03-12T07:09:21;29.20;;;19.83;;
49626;SDS011;35527;54.616;39.786;2023-03-12T07:12:30;16.92;;;10.00;;
49626;SDS011;35527;54.616;39.786;2023-03-12T07:15:34;20.27;;;10.82;;
49626;SDS011;35527;54.616;39.786;2023-03-12T07:18:38;17.40;;;9.65;;
49626;SDS011;35527;54.616;39.786;2023-03-12T07:21:44;22.98;;;10.88;;
49626;SDS011;35527;54.616;39.786;2023-03-12T07:24:47;25.05;;;18.40;;
49626;SDS011;35527;54.616;39.786;2023-03-12T07:27:51;26.20;;;19.35;;
49626;SDS011;35527;54.616;39.786;2023-03-12T07:30:58;21.98;;;11.88;;
49626;SDS011;35527;54.616;39.786;2023-03-12T07:34:06;27.80;;;21.10;;
49626;SDS011;35527;54.616;39.786;2023-03-12T07:37:10;21.30;;;11.48;;
49626;SDS011;35527;54.616;39.786;2023-03-12T07:40:13;18.10;;;11.07;;
49626;SDS011;35527;54.616;39.786;2023-03-12T07:43:15;21.67;;;12.52;;
49626;SDS011;35527;54.616;39.786;2023-03-12T07:49:24;31.08;;;24.63;;
49626;SDS011;35527;54.616;39.786;2023-03-12T07:52:29;30.30;;;22.93;;
49626;SDS011;35527;54.616;39.786;2023-03-12T07:55:32;22.95;;;13.80;;
49626;SDS011;35527;54.616;39.786;2023-03-12T07:58:37;23.48;;;13.20;;
49626;SDS011;35527;54.616;39.786;2023-03-12T08:01:40;25.55;;;19.52;;
49626;SDS011;35527;54.616;39.786;2023-03-12T08:04:45;22.23;;;11.93;;
49626;SDS011;35527;54.616;39.786;2023-03-12T08:07:48;23.60;;;17.50;;
49626;SDS011;35527;54.616;39.786;2023-03-12T08:10:51;22.90;;;11.05;;
49626;SDS011;35527;54.616;39.786;2023-03-12T08:13:55;22.73;;;15.15;;
49626;SDS011;35527;54.616;39.786;2023-03-12T08:16:58;17.75;;;9.45;;
49626;SDS011;35527;54.616;39.786;2023-03-12T08:20:01;22.02;;;15.38;;
49626;SDS011;35527;54.616;39.786;2023-03-12T08:23:11;22.83;;;16.02;;
49626;SDS011;35527;54.616;39.786;2023-03-12T08:26:15;24.45;;;10.93;;
49626;SDS011;35527;54.616;39.786;2023-03-12T08:29:21;17.77;;;9.23;;
49626;SDS011;35527;54.616;39.786;2023-03-12T08:32:23;22.40;;;17.15;;
49626;SDS011;35527;54.616;39.786;2023-03-12T08:35:27;18.15;;;9.35;;
49626;SDS011;35527;54.616;39.786;2023-03-12T08:38:30;24.80;;;17.13;;
49626;SDS011;35527;54.616;39.786;2023-03-12T08:41:33;18.55;;;10.35;;
49626;SDS011;35527;54.616;39.786;2023-03-12T08:44:35;21.95;;;16.10;;
49626;SDS011;35527;54.616;39.786;2023-03-12T08:47:41;16.90;;;9.32;;
49626;SDS011;35527;54.616;39.786;2023-03-12T08:50:53;16.83;;;9.98;;
49626;SDS011;35527;54.616;39.786;2023-03-12T08:53:59;20.05;;;9.85;;
49626;SDS011;35527;54.616;39.786;2023-03-12T08:57:02;23.73;;;17.55;;
49626;SDS011;35527;54.616;39.786;2023-03-12T09:00:30;22.38;;;17.27;;
49626;SDS011;35527;54.616;39.786;2023-03-12T09:03:36;20.73;;;10.88;;
49626;SDS011;35527;54.616;39.786;2023-03-12T09:06:40;16.30;;;9.20;;
49626;SDS011;35527;54.616;39.786;2023-03-12T09:09:44;20.83;;;16.15;;
49626;SDS011;35527;54.616;39.786;2023-03-12T09:12:47;14.32;;;7.93;;
49626;SDS011;35527;54.616;39.786;2023-03-12T09:15:56;14.02;;;7.72;;
49626;SDS011;35527;54.616;39.786;2023-03-12T09:19:01;18.02;;;12.20;;
49626;SDS011;35527;54.616;39.786;2023-03-12T09:22:03;12.10;;;5.32;;
49626;SDS011;35527;54.616;39.786;2023-03-12T09:25:08;16.30;;;10.93;;
49626;SDS011;35527;54.616;39.786;2023-03-12T09:28:12;12.32;;;6.70;;
49626;SDS011;35527;54.616;39.786;2023-03-12T09:31:18;14.07;;;7.85;;
49626;SDS011;35527;54.616;39.786;2023-03-12T09:34:21;10.68;;;5.25;;
49626;SDS011;35527;54.616;39.786;2023-03-12T09:37:26;10.93;;;5.13;;
49626;SDS011;35527;54.616;39.786;2023-03-12T09:40:30;15.95;;;11.55;;
49626;SDS011;35527;54.616;39.786;2023-03-12T09:46:55;15.48;;;6.95;;
49626;SDS011;35527;54.616;39.786;2023-03-12T09:50:04;12.65;;;7.43;;
49626;SDS011;35527;54.616;39.786;2023-03-12T09:53:35;15.20;;;11.20;;
49626;SDS011;35527;54.616;39.786;2023-03-12T09:56:42;11.38;;;6.22;;
49626;SDS011;35527;54.616;39.786;2023-03-12T09:59:45;13.95;;;6.25;;
49626;SDS011;35527;54.616;39.786;2023-03-12T10:06:14;12.98;;;10.43;;
49626;SDS011;35527;54.616;39.786;2023-03-12T10:29:23;15.80;;;11.45;;
49626;SDS011;35527;54.616;39.786;2023-03-12T10:32:45;14.38;;;7.15;;
49626;SDS011;35527;54.616;39.786;2023-03-12T10:35:53;13.80;;;7.20;;
49626;SDS011;35527;54.616;39.786;2023-03-12T10:38:59;17.48;;;11.30;;
49626;SDS011;35527;54.616;39.786;2023-03-12T10:42:11;15.43;;;10.93;;
49626;SDS011;35527;54.616;39.786;2023-03-12T10:45:25;16.17;;;12.07;;
49626;SDS011;35527;54.616;39.786;2023-03-12T10:48:49;15.43;;;11.57;;
49626;SDS011;35527;54.616;39.786;2023-03-12T10:51:58;11.98;;;6.38;;
49626;SDS011;35527;54.616;39.786;2023-03-12T10:55:21;12.20;;;6.63;;
49626;SDS011;35527;54.616;39.786;2023-03-12T10:58:33;13.05;;;7.30;;
49626;SDS011;35527;54.616;39.786;2023-03-12T11:01:41;15.95;;;10.63;;
49626;SDS011;35527;54.616;39.786;2023-03-12T11:04:53;14.05;;;10.02;;
49626;SDS011;35527;54.616;39.786;2023-03-12T11:07:58;12.38;;;6.55;;
49626;SDS011;35527;54.616;39.786;2023-03-12T11:11:03;11.18;;;5.97;;
49626;SDS011;35527;54.616;39.786;2023-03-12T11:14:28;13.67;;;9.80;;
49626;SDS011;35527;54.616;39.786;2023-03-12T11:17:38;13.48;;;10.75;;
49626;SDS011;35527;54.616;39.786;2023-03-12T11:24:13;15.27;;;10.00;;
49626;SDS011;35527;54.616;39.786;2023-03-12T11:28:03;11.20;;;6.00;;
49626;SDS011;35527;54.616;39.786;2023-03-12T11:30:55;11.82;;;6.32;;
49626;SDS011;35527;54.616;39.786;2023-03-12T11:34:03;13.32;;;10.23;;
49626;SDS011;35527;54.616;39.786;2023-03-12T11:37:11;10.70;;;5.72;;
49626;SDS011;35527;54.616;39.786;2023-03-12T11:44:10;7.22;;;3.63;;
49626;SDS011;35527;54.616;39.786;2023-03-12T11:47:40;11.13;;;5.38;;
49626;SDS011;35527;54.616;39.786;2023-03-12T11:50:46;12.35;;;8.88;;
49626;SDS011;35527;54.616;39.786;2023-03-12T11:54:05;11.38;;;8.15;;
49626;SDS011;35527;54.616;39.786;2023-03-12T12:20:15;9.77;;;5.13;;
49626;SDS011;35527;54.616;39.786;2023-03-12T12:28:18;11.98;;;7.30;;
49626;SDS011;35527;54.616;39.786;2023-03-12T12:32:00;13.05;;;9.45;;
49626;SDS011;35527;54.616;39.786;2023-03-12T12:39:33;9.70;;;5.73;;
49626;SDS011;35527;54.616;39.786;2023-03-12T12:46:32;11.85;;;7.13;;
49626;SDS011;35527;54.616;39.786;2023-03-12T12:49:49;14.02;;;10.77;;
49626;SDS011;35527;54.616;39.786;2023-03-12T12:57:06;12.82;;;6.18;;
49626;SDS011;35527;54.616;39.786;2023-03-12T13:00:30;10.93;;;5.97;;
49626;SDS011;35527;54.616;39.786;2023-03-12T13:04:19;16.35;;;7.75;;
49626;SDS011;35527;54.616;39.786;2023-03-12T13:07:28;17.83;;;12.70;;
49626;SDS011;35527;54.616;39.786;2023-03-12T13:10:39;14.20;;;12.30;;
49626;SDS011;35527;54.616;39.786;2023-03-12T13:14:33;15.93;;;13.02;;
49626;SDS011;35527;54.616;39.786;2023-03-12T13:20:41;14.95;;;11.13;;
49626;SDS011;35527;54.616;39.786;2023-03-12T13:24:21;13.95;;;10.77;;
49626;SDS011;35527;54.616;39.786;2023-03-12T13:28:00;16.77;;;12.03;;
49626;SDS011;35527;54.616;39.786;2023-03-12T13:34:31;13.35;;;6.50;;
49626;SDS011;35527;54.616;39.786;2023-03-12T13:43:57;11.10;;;6.13;;
49626;SDS011;35527;54.616;39.786;2023-03-12T13:50:30;11.93;;;9.80;;
49626;SDS011;35527;54.616;39.786;2023-03-12T13:53:37;11.52;;;8.45;;
49626;SDS011;35527;54.616;39.786;2023-03-12T13:57:51;7.95;;;4.25;;
49626;SDS011;35527;54.616;39.786;2023-03-12T14:00:45;7.78;;;4.22;;
49626;SDS011;35527;54.616;39.786;2023-03-12T14:04:22;10.82;;;8.00;;
49626;SDS011;35527;54.616;39.786;2023-03-12T14:11:00;9.82;;;7.88;;
49626;SDS011;35527;54.616;39.786;2023-03-12T14:18:08;10.52;;;8.23;;
49626;SDS011;35527;54.616;39.786;2023-03-12T14:21:16;7.95;;;4.57;;
49626;SDS011;35527;54.616;39.786;2023-03-12T14:27:37;9.98;;;7.82;;
49626;SDS011;35527;54.616;39.786;2023-03-12T14:30:55;7.25;;;3.55;;
49626;SDS011;35527;54.616;39.786;2023-03-12T14:34:15;9.65;;;8.10;;
49626;SDS011;35527;54.616;39.786;2023-03-12T14:41:08;9.35;;;7.03;;
49626;SDS011;35527;54.616;39.786;2023-03-12T14:44:31;8.50;;;6.75;;
49626;SDS011;35527;54.616;39.786;2023-03-12T14:47:42;8.30;;;4.00;;
49626;SDS011;35527;54.616;39.786;2023-03-12T14:50:47;6.70;;;4.30;;
49626;SDS011;35527;54.616;39.786;2023-03-12T14:53:55;9.93;;;8.43;;
49626;SDS011;35527;54.616;39.786;2023-03-12T14:57:04;10.40;;;4.60;;
49626;SDS011;35527;54.616;39.786;2023-03-12T15:00:24;7.05;;;3.47;;
49626;SDS011;35527;54.616;39.786;2023-03-12T15:03:30;7.88;;;6.35;;
49626;SDS011;35527;54.616;39.786;2023-03-12T15:06:43;7.40;;;5.40;;
49626;SDS011;35527;54.616;39.786;2023-03-12T15:09:50;6.32;;;3.40;;
49626;SDS011;35527;54.616;39.786;2023-03-12T15:12:55;8.13;;;3.60;;
49626;SDS011;35527;54.616;39.786;2023-03-12T15:16:02;5.60;;;3.15;;
49626;SDS011;35527;54.616;39.786;2023-03-12T15:19:11;5.10;;;2.83;;
49626;SDS011;35527;54.616;39.786;2023-03-12T15:22:16;4.72;;;2.63;;
49626;SDS011;35527;54.616;39.786;2023-03-12T15:28:31;2.63;;;1.42;;
49626;SDS011;35527;54.616;39.786;2023-03-12T15:32:00;2.80;;;1.00;;
49626;SDS011;35527;54.616;39.786;2023-03-12T15:35:29;0.73;;;0.40;;
49626;SDS011;35527;54.616;39.786;2023-03-12T15:38:33;1.45;;;0.70;;
49626;SDS011;35527;54.616;39.786;2023-03-12T15:41:45;0.85;;;0.77;;
49626;SDS011;35527;54.616;39.786;2023-03-12T15:45:01;0.50;;;0.50;;
49626;SDS011;35527;54.616;39.786;2023-03-12T15:48:38;0.68;;;0.38;;
49626;SDS011;35527;54.616;39.786;2023-03-12T15:51:38;0.93;;;0.60;;
49626;SDS011;35527;54.616;39.786;2023-03-12T15:54:42;3.33;;;0.57;;
49626;SDS011;35527;54.616;39.786;2023-03-12T15:58:24;0.40;;;0.40;;
49626;SDS011;35527;54.616;39.786;2023-03-12T16:01:29;3.95;;;0.70;;
49626;SDS011;35527;54.616;39.786;2023-03-12T16:04:49;0.30;;;0.30;;
49626;SDS011;35527;54.616;39.786;2023-03-12T16:07:52;0.47;;;0.45;;
49626;SDS011;35527;54.616;39.786;2023-03-12T16:14:01;2.35;;;1.25;;
49626;SDS011;35527;54.616;39.786;2023-03-12T16:17:11;0.40;;;0.30;;
49626;SDS011;35527;54.616;39.786;2023-03-12T16:20:16;0.47;;;0.40;;
49626;SDS011;35527;54.616;39.786;2023-03-12T16:23:45;0.90;;;0.52;;
49626;SDS011;35527;54.616;39.786;2023-03-12T16:26:54;1.35;;;0.55;;
49626;SDS011;35527;54.616;39.786;2023-03-12T16:30:06;0.88;;;0.38;;
49626;SDS011;35527;54.616;39.786;2023-03-12T16:33:17;0.77;;;0.50;;
49626;SDS011;35527;54.616;39.786;2023-03-12T16:36:25;1.05;;;0.50;;
49626;SDS011;35527;54.616;39.786;2023-03-12T16:39:29;1.88;;;1.08;;
49626;SDS011;35527;54.616;39.786;2023-03-12T16:42:37;0.35;;;0.35;;
49626;SDS011;35527;54.616;39.786;2023-03-12T16:45:43;1.08;;;0.60;;
49626;SDS011;35527;54.616;39.786;2023-03-12T16:48:49;0.63;;;0.45;;
49626;SDS011;35527;54.616;39.786;2023-03-12T16:51:58;1.88;;;0.60;;
49626;SDS011;35527;54.616;39.786;2023-03-12T16:55:02;0.50;;;0.40;;
49626;SDS011;35527;54.616;39.786;2023-03-12T16:58:05;1.63;;;0.80;;
49626;SDS011;35527;54.616;39.786;2023-03-12T17:01:12;2.20;;;0.88;;
49626;SDS011;35527;54.616;39.786;2023-03-12T17:04:23;1.75;;;0.93;;
49626;SDS011;35527;54.616;39.786;2023-03-12T17:07:29;1.85;;;1.38;;
49626;SDS011;35527;54.616;39.786;2023-03-12T17:10:32;1.73;;;0.90;;
49626;SDS011;35527;54.616;39.786;2023-03-12T17:13:36;1.50;;;1.00;;
49626;SDS011;35527;54.616;39.786;2023-03-12T17:16:38;0.50;;;0.30;;
49626;SDS011;35527;54.616;39.786;2023-03-12T17:19:43;0.80;;;0.68;;
49626;SDS011;35527;54.616;39.786;2023-03-12T17:22:47;0.88;;;0.65;;
49626;SDS011;35527;54.616;39.786;2023-03-12T17:25:52;2.13;;;0.73;;
49626;SDS011;35527;54.616;39.786;2023-03-12T17:28:56;3.47;;;1.88;;
49626;SDS011;35527;54.616;39.786;2023-03-12T17:32:00;4.28;;;1.98;;
49626;SDS011;35527;54.616;39.786;2023-03-12T17:35:05;0.40;;;0.40;;
49626;SDS011;35527;54.616;39.786;2023-03-12T17:38:13;1.25;;;0.88;;
49626;SDS011;35527;54.616;39.786;2023-03-12T17:41:17;4.32;;;1.98;;
49626;SDS011;35527;54.616;39.786;2023-03-12T17:44:30;10.70;;;2.55;;
49626;SDS011;35527;54.616;39.786;2023-03-12T17:47:36;1.35;;;0.60;;
49626;SDS011;35527;54.616;39.786;2023-03-12T17:50:40;1.52;;;0.82;;
49626;SDS011;35527;54.616;39.786;2023-03-12T17:53:46;0.75;;;0.55;;
49626;SDS011;35527;54.616;39.786;2023-03-12T17:56:50;1.80;;;0.82;;
49626;SDS011;35527;54.616;39.786;2023-03-12T17:59:57;1.23;;;0.80;;
49626;SDS011;35527;54.616;39.786;2023-03-12T18:03:00;1.40;;;0.68;;
49626;SDS011;35527;54.616;39.786;2023-03-12T18:06:06;4.72;;;2.50;;
49626;SDS011;35527;54.616;39.786;2023-03-12T18:09:10;3.85;;;2.28;;
49626;SDS011;35527;54.616;39.786;2023-03-12T18:12:14;2.00;;;0.88;;
49626;SDS011;35527;54.616;39.786;2023-03-12T18:15:17;5.45;;;2.60;;
49626;SDS011;35527;54.616;39.786;2023-03-12T18:18:22;3.00;;;1.65;;
49626;SDS011;35527;54.616;39.786;2023-03-12T18:21:26;4.28;;;2.38;;
49626;SDS011;35527;54.616;39.786;2023-03-12T18:24:29;1.88;;;1.10;;
49626;SDS011;35527;54.616;39.786;2023-03-12T18:27:57;1.75;;;0.90;;
49626;SDS011;35527;54.616;39.786;2023-03-12T18:31:02;2.45;;;1.05;;
49626;SDS011;35527;54.616;39.786;2023-03-12T18:34:06;1.55;;;1.00;;
49626;SDS011;35527;54.616;39.786;2023-03-12T18:37:09;1.27;;;0.85;;
49626;SDS011;35527;54.616;39.786;2023-03-12T18:40:14;4.70;;;1.08;;
49626;SDS011;35527;54.616;39.786;2023-03-12T18:43:18;3.55;;;1.20;;
49626;SDS011;35527;54.616;39.786;2023-03-12T18:46:25;2.28;;;1.00;;
49626;SDS011;35527;54.616;39.786;2023-03-12T18:49:28;1.90;;;1.10;;
49626;SDS011;35527;54.616;39.786;2023-03-12T18:52:31;4.00;;;2.13;;
49626;SDS011;35527;54.616;39.786;2023-03-12T18:55:35;2.13;;;1.15;;
49626;SDS011;35527;54.616;39.786;2023-03-12T18:59:06;0.80;;;0.50;;
49626;SDS011;35527;54.616;39.786;2023-03-12T19:05:14;2.22;;;0.88;;
49626;SDS011;35527;54.616;39.786;2023-03-12T19:08:17;4.20;;;2.28;;
49626;SDS011;35527;54.616;39.786;2023-03-12T19:11:22;1.98;;;1.15;;
49626;SDS011;35527;54.616;39.786;2023-03-12T19:14:28;2.90;;;1.13;;
49626;SDS011;35527;54.616;39.786;2023-03-12T19:17:31;2.47;;;1.25;;
49626;SDS011;35527;54.616;39.786;2023-03-12T19:20:36;4.00;;;2.13;;
49626;SDS011;35527;54.616;39.786;2023-03-12T19:23:41;3.97;;;1.23;;
49626;SDS011;35527;54.616;39.786;2023-03-12T19:26:44;2.08;;;0.80;;
49626;SDS011;35527;54.616;39.786;2023-03-12T19:29:48;4.22;;;1.10;;
49626;SDS011;35527;54.616;39.786;2023-03-12T19:32:54;2.45;;;1.10;;
49626;SDS011;35527;54.616;39.786;2023-03-12T19:39:00;3.40;;;1.67;;
49626;SDS011;35527;54.616;39.786;2023-03-12T19:42:10;2.08;;;1.05;;
49626;SDS011;35527;54.616;39.786;2023-03-12T19:45:13;1.38;;;0.75;;
49626;SDS011;35527;54.616;39.786;2023-03-12T19:48:17;2.35;;;1.00;;
49626;SDS011;35527;54.616;39.786;2023-03-12T19:51:21;1.50;;;0.85;;
49626;SDS011;35527;54.616;39.786;2023-03-12T19:54:24;2.25;;;0.93;;
49626;SDS011;35527;54.616;39.786;2023-03-12T19:57:28;1.95;;;0.65;;
49626;SDS011;35527;54.616;39.786;2023-03-12T20:00:32;1.67;;;0.90;;
49626;SDS011;35527;54.616;39.786;2023-03-12T20:03:36;2.65;;;1.15;;
49626;SDS011;35527;54.616;39.786;2023-03-12T20:06:48;1.42;;;0.85;;
49626;SDS011;35527;54.616;39.786;2023-03-12T20:09:53;4.13;;;1.90;;
49626;SDS011;35527;54.616;39.786;2023-03-12T20:12:56;1.40;;;0.95;;
49626;SDS011;35527;54.616;39.786;2023-03-12T20:16:01;2.35;;;1.13;;
49626;SDS011;35527;54.616;39.786;2023-03-12T20:19:05;1.90;;;0.77;;
49626;SDS011;35527;54.616;39.786;2023-03-12T20:22:10;1.70;;;0.85;;
49626;SDS011;35527;54.616;39.786;2023-03-12T20:25:13;3.60;;;1.70;;
49626;SDS011;35527;54.616;39.786;2023-03-12T20:28:17;1.75;;;0.68;;
49626;SDS011;35527;54.616;39.786;2023-03-12T20:31:23;2.03;;;1.08;;
49626;SDS011;35527;54.616;39.786;2023-03-12T20:34:27;0.98;;;0.63;;
49626;SDS011;35527;54.616;39.786;2023-03-12T20:37:32;1.65;;;0.77;;
49626;SDS011;35527;54.616;39.786;2023-03-12T20:40:35;2.47;;;1.10;;
49626;SDS011;35527;54.616;39.786;2023-03-12T20:43:39;1.75;;;0.93;;
49626;SDS011;35527;54.616;39.786;2023-03-12T20:46:49;1.73;;;0.90;;
49626;SDS011;35527;54.616;39.786;2023-03-12T20:49:54;1.63;;;0.70;;